Bolton Landing, New York
Current Conditions -  °F | °C
As of 11:53 AM on Monday 24 Nov 2014 (Local Time) from KGFL Reporting Station
Overcast Overcast  
Wind Chill: 62°   Ceiling: 1500
Heat Index: 62°   Visibility: 10mi
Dew Point: 58°   Wind: 6mph
Humidity: 86%   Direction: 230°SW
Pressure: 29.51"   Gusts: NA
Location:  43.56°N, 73.66°W
Report Text: KGFL 241653Z AUTO 23005KT 10SM BKN015 OVC022 17/14 A2951 RMK AO2 SLP996 T01670144
Loading
Personal Weather Stations






























Interactive Weather Map New forecast layout! Learn more

10-Day Weather Forecast

Advertisements
Track Severe Weather on mobile